createdAt,value
2022-08-28T00:00:35.861Z,99513.91
2022-08-28T00:03:02.516Z,99511.09
2022-08-28T00:05:31.260Z,99520.53
2022-08-28T00:07:59.831Z,99513.13
2022-08-28T00:10:27.483Z,99510.28
2022-08-28T00:12:55.801Z,99514.66
2022-08-28T00:15:27.373Z,99511.63
2022-08-28T00:17:53.942Z,99514.25
2022-08-28T00:20:21.075Z,99510.03
2022-08-28T00:22:48.622Z,99512.41
2022-08-28T00:25:16.649Z,99508.91
2022-08-28T00:27:55.601Z,99512.31
2022-08-28T00:30:28.201Z,99514.44
2022-08-28T00:32:57.410Z,99505.94
2022-08-28T00:35:24.126Z,99510.72
2022-08-28T00:37:51.458Z,99508.06
2022-08-28T00:40:30.527Z,99499.34
2022-08-28T00:43:01.640Z,99498.19
2022-08-28T00:45:28.990Z,99494.31
2022-08-28T00:47:55.480Z,99501.28
2022-08-28T00:50:25.191Z,99497.19
2022-08-28T00:52:55.414Z,99490.59
2022-08-28T00:55:24.140Z,99488.22
2022-08-28T00:57:54.129Z,99489.56
2022-08-28T01:00:33.841Z,99492.38
2022-08-28T01:03:01.085Z,99495.25
2022-08-28T01:05:28.880Z,99487.25
2022-08-28T01:07:58.839Z,99490.78
2022-08-28T01:10:28.423Z,99491.97
2022-08-28T01:12:56.740Z,99484.44
2022-08-28T01:15:28.357Z,99485.25
2022-08-28T01:17:58.383Z,99489.59
2022-08-28T01:20:28.163Z,99480.56
2022-08-28T01:23:00.937Z,99484.31
2022-08-28T01:25:31.228Z,99487.28
2022-08-28T01:27:58.688Z,99486.00
2022-08-28T01:30:25.595Z,99489.53
2022-08-28T01:32:54.586Z,99490.25
2022-08-28T01:35:27.309Z,99487.91
2022-08-28T01:37:55.723Z,99491.06
2022-08-28T01:40:31.597Z,99487.78
2022-08-28T01:43:10.195Z,99485.44
2022-08-28T01:45:37.951Z,99482.03
2022-08-28T01:48:06.269Z,99483.34
2022-08-28T01:50:34.184Z,99487.19
2022-08-28T01:53:01.318Z,99482.50
2022-08-28T01:55:28.472Z,99492.38
2022-08-28T01:57:56.943Z,99487.09
2022-08-28T02:00:27.489Z,99486.38
2022-08-28T02:02:57.067Z,99486.16
2022-08-28T02:05:25.361Z,99481.28
2022-08-28T02:07:52.504Z,99483.28
2022-08-28T02:10:22.483Z,99479.13
2022-08-28T02:12:50.245Z,99484.44
2022-08-28T02:15:17.727Z,99479.69
2022-08-28T02:17:45.363Z,99484.16
2022-08-28T02:20:12.005Z,99486.47
2022-08-28T02:22:38.584Z,99490.25
2022-08-28T02:25:06.431Z,99487.28
2022-08-28T02:27:33.216Z,99484.91
2022-08-28T02:29:59.966Z,99481.38
2022-08-28T02:32:26.673Z,99484.28
2022-08-28T02:34:53.489Z,99474.28
2022-08-28T02:37:20.641Z,99477.81
2022-08-28T02:39:47.785Z,99477.22
2022-08-28T02:42:14.316Z,99477.72
2022-08-28T02:44:42.678Z,99473.75
2022-08-28T02:47:09.202Z,99467.97
2022-08-28T02:49:36.452Z,99481.34
2022-08-28T02:52:03.985Z,99484.09
2022-08-28T02:54:31.190Z,99486.88
2022-08-28T02:56:58.856Z,99485.38
2022-08-28T02:59:25.768Z,99484.94
2022-08-28T03:01:52.527Z,99481.50
2022-08-28T03:04:19.375Z,99487.13
2022-08-28T03:06:46.015Z,99491.53
2022-08-28T03:09:12.550Z,99487.19
2022-08-28T03:11:41.219Z,99484.94
2022-08-28T03:14:07.989Z,99483.44
2022-08-28T03:16:34.583Z,99477.75
2022-08-28T03:19:01.356Z,99478.38
2022-08-28T03:21:28.034Z,99481.81
2022-08-28T03:23:55.271Z,99473.13
2022-08-28T03:26:24.037Z,99478.13
2022-08-28T03:28:53.287Z,99473.41
2022-08-28T03:31:23.549Z,99471.16
2022-08-28T03:33:50.634Z,99478.22
2022-08-28T03:36:21.593Z,99469.53
2022-08-28T03:38:48.905Z,99475.34
2022-08-28T03:41:18.118Z,99481.66
2022-08-28T03:43:45.427Z,99487.84
2022-08-28T03:46:22.722Z,99485.09
2022-08-28T03:48:50.468Z,99487.19
2022-08-28T03:51:28.000Z,99494.06
2022-08-28T03:53:58.579Z,99493.31
2022-08-28T03:56:26.954Z,99488.72
2022-08-28T03:58:59.102Z,99496.66
2022-08-28T04:01:26.612Z,99491.06
2022-08-28T04:03:53.480Z,99496.41
2022-08-28T04:06:20.185Z,99499.75
2022-08-28T04:08:47.738Z,99500.19
2022-08-28T04:11:15.197Z,99502.09
2022-08-28T04:13:42.308Z,99505.97
2022-08-28T04:16:12.907Z,99504.25
2022-08-28T04:18:41.457Z,99504.84
2022-08-28T04:21:21.252Z,99503.63
2022-08-28T04:23:47.847Z,99506.78
2022-08-28T04:26:17.819Z,99509.81
2022-08-28T04:28:45.316Z,99506.00
2022-08-28T04:31:11.950Z,99501.88
2022-08-28T04:33:39.182Z,99500.97
2022-08-28T04:36:09.002Z,99504.41
2022-08-28T04:38:39.255Z,99504.59
2022-08-28T04:41:12.700Z,99507.13
2022-08-28T04:43:39.169Z,99510.00
2022-08-28T04:46:08.107Z,99509.06
2022-08-28T04:48:35.516Z,99511.91
2022-08-28T04:51:02.017Z,99509.28
2022-08-28T04:53:29.571Z,99507.19
2022-08-28T04:55:58.961Z,99514.69
2022-08-28T04:58:27.549Z,99518.97
2022-08-28T05:00:54.957Z,99514.47
2022-08-28T05:03:22.081Z,99512.34
2022-08-28T05:05:51.769Z,99522.25
2022-08-28T05:08:20.511Z,99509.22
2022-08-28T05:10:47.581Z,99507.72
2022-08-28T05:13:19.157Z,99511.84
2022-08-28T05:15:47.785Z,99502.03
2022-08-28T05:18:15.440Z,99507.97
2022-08-28T05:20:44.637Z,99508.94
2022-08-28T05:23:12.337Z,99515.31
2022-08-28T05:25:41.912Z,99512.44
2022-08-28T05:28:12.320Z,99515.06
2022-08-28T05:30:40.610Z,99518.00
2022-08-28T05:33:08.480Z,99513.78
2022-08-28T05:35:37.444Z,99520.59
2022-08-28T05:38:05.008Z,99524.34
2022-08-28T05:40:31.785Z,99523.78
2022-08-28T05:42:59.010Z,99522.50
2022-08-28T05:45:25.753Z,99518.50
2022-08-28T05:47:52.240Z,99520.00
2022-08-28T05:50:19.255Z,99519.50
2022-08-28T05:52:45.908Z,99522.56
2022-08-28T05:55:13.191Z,99525.28
2022-08-28T05:57:40.161Z,99533.59
2022-08-28T06:00:09.776Z,99537.88
2022-08-28T06:02:36.217Z,99532.88
2022-08-28T06:05:02.788Z,99539.66
2022-08-28T06:07:29.421Z,99531.91
2022-08-28T06:09:55.913Z,99535.78
2022-08-28T06:12:22.429Z,99553.47
2022-08-28T06:14:49.715Z,99555.69
2022-08-28T06:17:16.545Z,99545.69
2022-08-28T06:19:50.079Z,99538.25
2022-08-28T06:22:16.828Z,99540.00
2022-08-28T06:24:43.665Z,99545.13
2022-08-28T06:27:10.193Z,99541.84
2022-08-28T06:29:36.749Z,99545.06
2022-08-28T06:32:05.015Z,99547.63
2022-08-28T06:34:31.860Z,99553.13
2022-08-28T06:36:58.690Z,99549.25
2022-08-28T06:39:25.151Z,99548.00
2022-08-28T06:41:51.720Z,99545.88
2022-08-28T06:44:20.100Z,99544.16
2022-08-28T06:46:48.665Z,99549.16
2022-08-28T06:49:15.573Z,99555.84
2022-08-28T06:51:42.276Z,99569.59
2022-08-28T06:54:09.400Z,99568.78
2022-08-28T06:56:36.545Z,99578.53
2022-08-28T06:59:03.448Z,99581.91
2022-08-28T07:01:33.132Z,99592.75
2022-08-28T07:04:04.010Z,99596.47
2022-08-28T07:06:32.898Z,99600.66
2022-08-28T07:08:59.755Z,99609.13
2022-08-28T07:11:29.077Z,99615.56
2022-08-28T07:13:57.557Z,99606.31
2022-08-28T07:16:27.263Z,99610.25
2022-08-28T07:18:54.203Z,99619.13
2022-08-28T07:21:21.039Z,99624.28
2022-08-28T07:23:47.891Z,99622.53
2022-08-28T07:26:19.562Z,99619.22
2022-08-28T07:28:47.407Z,99614.84
2022-08-28T07:31:18.619Z,99616.81
2022-08-28T07:33:45.723Z,99624.06
2022-08-28T07:36:29.001Z,99626.22
2022-08-28T07:38:58.663Z,99626.09
2022-08-28T07:41:28.660Z,99633.94
2022-08-28T07:44:13.720Z,99630.63
2022-08-28T07:46:40.865Z,99631.56
2022-08-28T07:49:08.945Z,99623.78
2022-08-28T07:51:35.756Z,99635.81
2022-08-28T07:54:04.143Z,99636.56
2022-08-28T07:56:31.784Z,99641.44
2022-08-28T07:59:00.921Z,99628.69
2022-08-28T08:01:30.626Z,99624.75
2022-08-28T08:04:01.440Z,99624.22
2022-08-28T08:06:33.731Z,99616.88
2022-08-28T08:09:02.148Z,99610.44
2022-08-28T08:11:32.530Z,99600.50
2022-08-28T08:14:05.620Z,99586.66
2022-08-28T08:16:38.728Z,99585.25
2022-08-28T08:19:05.977Z,99575.22
2022-08-28T08:21:32.710Z,99572.63
2022-08-28T08:23:59.488Z,99579.91
2022-08-28T08:26:30.127Z,99586.19
2022-08-28T08:28:59.251Z,99576.94
2022-08-28T08:31:32.607Z,99575.56
2022-08-28T08:34:02.121Z,99580.56
2022-08-28T08:36:29.146Z,99575.63
2022-08-28T08:38:59.967Z,99583.84
2022-08-28T08:41:41.485Z,99582.66
2022-08-28T08:44:18.042Z,99587.03
2022-08-28T08:47:16.568Z,99582.88
2022-08-28T08:49:53.080Z,99577.63
2022-08-28T08:52:52.467Z,99581.13
2022-08-28T08:55:31.624Z,99579.72
2022-08-28T08:58:07.722Z,99574.97
2022-08-28T09:00:39.948Z,99574.22
2022-08-28T09:03:45.891Z,99574.84
2022-08-28T09:06:40.665Z,99584.00
2022-08-28T09:09:21.731Z,99575.06
2022-08-28T09:12:00.716Z,99570.72
2022-08-28T09:14:44.297Z,99575.50
2022-08-28T09:17:12.439Z,99572.06
2022-08-28T09:19:39.206Z,99570.25
2022-08-28T09:22:05.845Z,99570.22
2022-08-28T09:24:36.767Z,99576.25
2022-08-28T09:27:19.357Z,99577.31
2022-08-28T09:29:54.669Z,99572.34
2022-08-28T09:32:25.714Z,99570.34
2022-08-28T09:35:06.816Z,99568.78
2022-08-28T09:37:35.277Z,99569.22
2022-08-28T09:40:50.933Z,99568.97
2022-08-28T09:43:27.069Z,99564.38
2022-08-28T09:45:59.755Z,99567.66
2022-08-28T09:48:52.861Z,99569.81
2022-08-28T09:51:22.026Z,99560.47
2022-08-28T09:53:57.334Z,99561.56
2022-08-28T09:56:39.866Z,99566.03
2022-08-28T09:59:20.688Z,99570.88
2022-08-28T10:01:50.017Z,99569.69
2022-08-28T10:04:31.584Z,99561.19
2022-08-28T10:07:33.812Z,99558.94
2022-08-28T10:10:24.969Z,99565.53
2022-08-28T10:13:14.936Z,99550.25
2022-08-28T10:15:43.521Z,99555.13
2022-08-28T10:18:45.811Z,99550.25
2022-08-28T10:21:24.126Z,99548.97
2022-08-28T10:24:02.617Z,99551.97
2022-08-28T10:26:52.516Z,99553.31
2022-08-28T10:29:33.687Z,99547.25
2022-08-28T10:32:16.057Z,99543.94
2022-08-28T10:35:20.881Z,99545.41
2022-08-28T10:38:19.540Z,99544.84
2022-08-28T10:41:03.469Z,99543.19
2022-08-28T10:43:34.217Z,99549.06
2022-08-28T10:46:41.770Z,99546.59
2022-08-28T10:49:33.369Z,99540.97
2022-08-28T10:52:04.720Z,99542.72
2022-08-28T10:54:40.851Z,99541.91
2022-08-28T10:57:17.451Z,99542.94
2022-08-28T10:59:46.807Z,99550.50
2022-08-28T11:02:14.258Z,99542.97
2022-08-28T11:04:41.002Z,99538.75
2022-08-28T11:07:09.873Z,99540.28
2022-08-28T11:09:46.049Z,99548.78
2022-08-28T11:12:20.086Z,99554.06
2022-08-28T11:14:49.490Z,99549.28
2022-08-28T11:17:39.629Z,99539.72
2022-08-28T11:20:12.104Z,99549.88
2022-08-28T11:22:43.089Z,99553.88
2022-08-28T11:25:32.530Z,99551.63
2022-08-28T11:28:22.453Z,99546.94
2022-08-28T11:30:58.952Z,99543.28
2022-08-28T11:33:49.896Z,99550.22
2022-08-28T11:36:19.689Z,99537.25
2022-08-28T11:38:46.912Z,99539.56
2022-08-28T11:41:36.601Z,99537.53
2022-08-28T11:44:18.602Z,99541.97
2022-08-28T11:46:47.508Z,99551.31
2022-08-28T11:49:26.611Z,99544.75
2022-08-28T11:52:23.908Z,99542.88
2022-08-28T11:54:52.474Z,99543.56
2022-08-28T11:57:24.752Z,99543.28
2022-08-28T12:00:00.771Z,99542.13
2022-08-28T12:02:44.220Z,99536.44
2022-08-28T12:05:17.330Z,99539.97
2022-08-28T12:07:47.123Z,99547.13
2022-08-28T12:10:22.926Z,99546.38
2022-08-28T12:12:55.869Z,99547.13
2022-08-28T12:15:28.782Z,99549.75
2022-08-28T12:18:00.928Z,99543.22
2022-08-28T12:20:35.942Z,99545.69
2022-08-28T12:23:24.536Z,99544.97
2022-08-28T12:26:03.297Z,99541.97
2022-08-28T12:28:51.073Z,99535.81
2022-08-28T12:32:12.391Z,99524.53
2022-08-28T12:34:51.159Z,99518.91
2022-08-28T12:37:39.532Z,99529.50
2022-08-28T12:40:25.581Z,99519.84
2022-08-28T12:42:56.449Z,99522.88
2022-08-28T12:45:31.197Z,99530.06
2022-08-28T12:48:01.839Z,99524.34
2022-08-28T12:50:31.143Z,99518.44
2022-08-28T12:53:02.789Z,99522.72
2022-08-28T12:55:29.489Z,99511.88
2022-08-28T12:58:02.050Z,99515.47
2022-08-28T13:00:37.317Z,99512.84
2022-08-28T13:03:07.571Z,99504.38
2022-08-28T13:05:39.771Z,99504.94
2022-08-28T13:08:09.360Z,99503.81
2022-08-28T13:10:49.228Z,99501.63
2022-08-28T13:13:40.560Z,99503.69
2022-08-28T13:16:10.235Z,99499.44
2022-08-28T13:18:47.556Z,99498.38
2022-08-28T13:21:33.466Z,99497.34
2022-08-28T13:24:24.215Z,99491.06
2022-08-28T13:27:05.969Z,99486.69
2022-08-28T13:29:33.078Z,99484.31
2022-08-28T13:32:06.839Z,99485.47
2022-08-28T13:34:37.978Z,99487.81
2022-08-28T13:37:14.990Z,99485.34
2022-08-28T13:39:47.417Z,99479.97
2022-08-28T13:42:16.284Z,99482.06
2022-08-28T13:44:57.853Z,99485.19
2022-08-28T13:47:25.695Z,99477.69
2022-08-28T13:49:52.391Z,99479.63
2022-08-28T13:52:19.789Z,99477.69
2022-08-28T13:54:47.019Z,99487.88
2022-08-28T13:57:14.091Z,99487.44
2022-08-28T13:59:41.596Z,99487.19
2022-08-28T14:02:29.878Z,99482.91
2022-08-28T14:04:56.834Z,99477.34
2022-08-28T14:07:23.761Z,99477.25
2022-08-28T14:09:55.506Z,99473.19
2022-08-28T14:12:24.956Z,99471.88
2022-08-28T14:14:59.792Z,99467.91
2022-08-28T14:17:26.638Z,99467.91
2022-08-28T14:19:53.282Z,99469.41
2022-08-28T14:22:19.929Z,99469.75
2022-08-28T14:24:46.815Z,99469.75
2022-08-28T14:27:13.355Z,99470.22
2022-08-28T14:29:39.943Z,99470.75
2022-08-28T14:32:06.760Z,99473.50
2022-08-28T14:34:33.715Z,99470.31
2022-08-28T14:37:01.753Z,99476.19
2022-08-28T14:39:28.495Z,99474.53
2022-08-28T14:41:55.471Z,99465.44
2022-08-28T14:44:23.535Z,99469.22
2022-08-28T14:46:51.786Z,99460.84
2022-08-28T14:49:23.653Z,99464.69
2022-08-28T14:51:50.808Z,99459.56
2022-08-28T14:54:19.804Z,99459.25
2022-08-28T14:56:47.977Z,99460.28
2022-08-28T14:59:21.906Z,99467.50
2022-08-28T15:01:51.094Z,99470.25
2022-08-28T15:04:20.102Z,99470.31
2022-08-28T15:06:46.695Z,99474.38
2022-08-28T15:09:14.192Z,99476.22
2022-08-28T15:11:42.227Z,99482.56
2022-08-28T15:14:09.108Z,99485.78
2022-08-28T15:16:39.353Z,99486.22
2022-08-28T15:19:07.145Z,99488.44
2022-08-28T15:21:38.601Z,99502.34
2022-08-28T15:24:06.804Z,99493.66
2022-08-28T15:26:34.178Z,99501.34
2022-08-28T15:29:03.596Z,99497.72
2022-08-28T15:31:31.592Z,99504.00
2022-08-28T15:34:03.267Z,99498.97
2022-08-28T15:36:29.864Z,99497.81
2022-08-28T15:39:16.797Z,99484.94
2022-08-28T15:41:46.985Z,99476.78
2022-08-28T15:44:15.119Z,99476.91
2022-08-28T15:46:41.846Z,99469.22
2022-08-28T15:49:09.268Z,99474.69
2022-08-28T15:51:36.126Z,99463.41
2022-08-28T15:54:02.767Z,99473.75
2022-08-28T15:56:29.252Z,99470.38
2022-08-28T15:58:56.023Z,99464.44
2022-08-28T16:01:23.360Z,99472.69
2022-08-28T16:03:49.939Z,99476.34
2022-08-28T16:06:19.954Z,99467.84
2022-08-28T16:08:48.192Z,99470.34
2022-08-28T16:11:19.584Z,99474.91
2022-08-28T16:13:46.554Z,99465.00
2022-08-28T16:16:13.138Z,99474.75
2022-08-28T16:18:39.661Z,99480.78
2022-08-28T16:21:06.544Z,99484.13
2022-08-28T16:23:33.411Z,99491.47
2022-08-28T16:26:00.631Z,99501.38
2022-08-28T16:28:27.695Z,99497.69
2022-08-28T16:30:54.364Z,99496.38
2022-08-28T16:33:22.275Z,99491.72
2022-08-28T16:35:55.011Z,99493.88
2022-08-28T16:38:23.496Z,99491.13
2022-08-28T16:40:50.044Z,99499.34
2022-08-28T16:43:16.697Z,99499.88
2022-08-28T16:45:44.923Z,99486.75
2022-08-28T16:48:12.828Z,99489.00
2022-08-28T16:50:41.129Z,99488.50
2022-08-28T16:53:08.448Z,99490.66
2022-08-28T16:55:35.105Z,99496.94
2022-08-28T16:58:01.754Z,99502.69
2022-08-28T17:00:28.493Z,99497.22
2022-08-28T17:02:55.032Z,99500.75
2022-08-28T17:05:21.680Z,99496.38
2022-08-28T17:07:48.292Z,99498.78
2022-08-28T17:10:19.809Z,99495.19
2022-08-28T17:12:46.497Z,99497.91
2022-08-28T17:15:13.842Z,99506.34
2022-08-28T17:17:41.114Z,99506.34
2022-08-28T17:20:08.809Z,99514.50
2022-08-28T17:22:35.484Z,99513.94
2022-08-28T17:25:03.162Z,99528.03
2022-08-28T17:27:32.034Z,99536.69
2022-08-28T17:29:59.816Z,99552.47
2022-08-28T17:32:26.353Z,99554.97
2022-08-28T17:34:53.237Z,99573.19
2022-08-28T17:37:20.828Z,99585.81
2022-08-28T17:39:48.074Z,99588.31
2022-08-28T17:42:15.725Z,99590.28
2022-08-28T17:44:42.808Z,99583.09
2022-08-28T17:47:09.611Z,99591.13
2022-08-28T17:49:36.143Z,99599.91
2022-08-28T17:52:03.438Z,99600.88
2022-08-28T17:54:30.286Z,99597.97
2022-08-28T17:56:57.320Z,99614.94
2022-08-28T17:59:25.096Z,99620.84
2022-08-28T18:01:51.991Z,99608.03
2022-08-28T18:04:23.898Z,99610.09
2022-08-28T18:06:54.092Z,99608.38
2022-08-28T18:09:21.563Z,99604.00
2022-08-28T18:11:48.553Z,99606.59
2022-08-28T18:14:15.459Z,99604.34
2022-08-28T18:16:42.135Z,99615.63
2022-08-28T18:19:10.314Z,99604.91
2022-08-28T18:21:38.483Z,99603.00
2022-08-28T18:24:05.310Z,99606.84
2022-08-28T18:26:31.957Z,99600.50
2022-08-28T18:29:01.838Z,99595.09
2022-08-28T18:31:28.683Z,99592.94
2022-08-28T18:33:55.561Z,99595.03
2022-08-28T18:36:23.306Z,99591.38
2022-08-28T18:38:50.697Z,99591.34
2022-08-28T18:41:19.666Z,99588.38
2022-08-28T18:43:46.887Z,99584.75
2022-08-28T18:46:14.332Z,99588.94
2022-08-28T18:48:41.717Z,99598.47
2022-08-28T18:51:10.497Z,99599.88
2022-08-28T18:53:37.668Z,99597.66
2022-08-28T18:56:06.047Z,99602.44
2022-08-28T18:58:33.101Z,99593.84
2022-08-28T19:01:01.031Z,99600.44
2022-08-28T19:03:27.927Z,99602.88
2022-08-28T19:05:57.693Z,99606.69
2022-08-28T19:08:25.317Z,99600.53
2022-08-28T19:10:52.237Z,99601.00
2022-08-28T19:13:20.780Z,99596.81
2022-08-28T19:15:52.671Z,99599.13
2022-08-28T19:18:19.869Z,99594.13
2022-08-28T19:20:47.173Z,99595.59
2022-08-28T19:23:17.415Z,99595.16
2022-08-28T19:25:44.976Z,99590.91
2022-08-28T19:28:11.683Z,99589.13
2022-08-28T19:30:38.226Z,99589.06
2022-08-28T19:33:05.889Z,99591.38
2022-08-28T19:35:33.767Z,99591.69
2022-08-28T19:38:01.319Z,99593.94
2022-08-28T19:40:27.975Z,99597.50
2022-08-28T19:42:54.953Z,99593.38
2022-08-28T19:45:22.130Z,99597.00
2022-08-28T19:47:49.077Z,99593.69
2022-08-28T19:50:16.188Z,99594.06
2022-08-28T19:52:43.472Z,99590.75
2022-08-28T19:55:17.692Z,99586.56
2022-08-28T19:57:46.194Z,99591.09
2022-08-28T20:00:15.160Z,99588.59
2022-08-28T20:02:41.894Z,99584.31
2022-08-28T20:05:09.042Z,99584.53
2022-08-28T20:07:35.688Z,99576.50
2022-08-28T20:10:02.445Z,99575.84
2022-08-28T20:12:29.107Z,99570.97
2022-08-28T20:15:01.289Z,99568.97
2022-08-28T20:17:29.981Z,99571.19
2022-08-28T20:20:02.322Z,99571.94
2022-08-28T20:22:29.573Z,99568.22
2022-08-28T20:24:57.072Z,99571.88
2022-08-28T20:27:23.792Z,99569.03
2022-08-28T20:29:50.523Z,99571.06
2022-08-28T20:32:17.180Z,99576.38
2022-08-28T20:34:44.697Z,99565.69
2022-08-28T20:37:11.361Z,99571.31
2022-08-28T20:39:41.450Z,99575.22
2022-08-28T20:42:09.537Z,99571.22
2022-08-28T20:44:36.185Z,99572.97
2022-08-28T20:47:03.168Z,99571.31
2022-08-28T20:49:29.776Z,99566.63
2022-08-28T20:51:58.475Z,99560.56
2022-08-28T20:54:30.953Z,99562.38
2022-08-28T20:57:02.515Z,99569.44
2022-08-28T20:59:37.240Z,99560.28
2022-08-28T21:02:09.552Z,99568.44
2022-08-28T21:04:38.806Z,99564.38
2022-08-28T21:07:06.201Z,99561.84
2022-08-28T21:09:39.604Z,99567.69
2022-08-28T21:12:19.895Z,99566.81
2022-08-28T21:14:51.401Z,99561.91
2022-08-28T21:17:29.991Z,99565.00
2022-08-28T21:20:02.959Z,99573.56
2022-08-28T21:22:31.951Z,99581.31
2022-08-28T21:24:59.823Z,99576.38
2022-08-28T21:27:26.968Z,99573.69
2022-08-28T21:29:58.678Z,99587.31
2022-08-28T21:32:26.765Z,99591.50
2022-08-28T21:34:54.523Z,99602.31
2022-08-28T21:37:21.262Z,99604.84
2022-08-28T21:39:47.929Z,99602.97
2022-08-28T21:42:14.458Z,99611.16
2022-08-28T21:44:41.007Z,99615.19
2022-08-28T21:47:18.930Z,99616.84
2022-08-28T21:49:48.016Z,99626.16
2022-08-28T21:52:14.644Z,99624.34
2022-08-28T21:54:41.280Z,99630.28
2022-08-28T21:57:07.906Z,99633.66
2022-08-28T21:59:37.882Z,99634.06
2022-08-28T22:02:05.471Z,99639.00
2022-08-28T22:04:32.425Z,99636.16
2022-08-28T22:06:59.010Z,99639.63
2022-08-28T22:09:25.841Z,99633.50
2022-08-28T22:11:52.473Z,99624.66
2022-08-28T22:14:19.002Z,99614.78
2022-08-28T22:16:46.370Z,99628.72
2022-08-28T22:19:12.961Z,99635.81
2022-08-28T22:21:58.469Z,99626.31
2022-08-28T22:24:25.002Z,99632.97
2022-08-28T22:26:57.321Z,99626.13
2022-08-28T22:29:24.433Z,99635.22
2022-08-28T22:31:51.071Z,99633.13
2022-08-28T22:34:17.741Z,99634.78
2022-08-28T22:36:44.483Z,99635.63
2022-08-28T22:39:11.106Z,99634.78
2022-08-28T22:41:37.688Z,99635.41
2022-08-28T22:44:05.494Z,99635.81
2022-08-28T22:46:31.961Z,99638.28
2022-08-28T22:48:59.439Z,99639.16
2022-08-28T22:51:26.302Z,99642.47
2022-08-28T22:53:52.880Z,99647.25
2022-08-28T22:56:20.436Z,99641.63
2022-08-28T22:58:47.133Z,99637.50
2022-08-28T23:01:19.716Z,99632.91
2022-08-28T23:03:46.970Z,99633.94
2022-08-28T23:06:14.013Z,99639.53
2022-08-28T23:08:40.578Z,99636.19
2022-08-28T23:11:07.239Z,99630.19
2022-08-28T23:13:34.556Z,99636.47
2022-08-28T23:16:01.484Z,99637.06
2022-08-28T23:18:28.551Z,99658.81
2022-08-28T23:20:55.414Z,99667.38
2022-08-28T23:23:22.941Z,99672.69
2022-08-28T23:25:50.437Z,99670.50
2022-08-28T23:28:17.664Z,99650.28
2022-08-28T23:30:48.591Z,99657.38
2022-08-28T23:33:23.745Z,99657.72
2022-08-28T23:35:51.958Z,99657.84
2022-08-28T23:38:18.720Z,99651.38
2022-08-28T23:40:46.066Z,99639.56
2022-08-28T23:43:12.606Z,99641.66
2022-08-28T23:45:41.270Z,99649.22
2022-08-28T23:48:08.217Z,99645.47
2022-08-28T23:50:34.829Z,99646.78
2022-08-28T23:53:01.479Z,99636.16
2022-08-28T23:55:28.109Z,99640.47
2022-08-28T23:57:54.631Z,99634.44
